Time;durP1;ratioP1;P1;durP2;ratioP2;P2;SDS_P1;SDS_P2;PMS_P1;PMS_P2;Temp;Humidity;BMP_temperature;BMP_pressure;BME280_temperature;BME280_humidity;BME280_pressure;Samples;Min_cycle;Max_cycle;Signal;HPM_P1;HPM_P2
2021/12/27 00:01:05;;;;;;;26.85;15.90;;;2.60;89.00;;;;;;5054524;28;20028;-50
2021/12/27 00:03:31;;;;;;;31.13;15.55;;;2.60;89.10;;;;;;5054236;28;20098;-51
2021/12/27 00:05:56;;;;;;;25.77;14.73;;;2.60;89.10;;;;;;5054282;28;20061;-50
2021/12/27 00:08:23;;;;;;;26.48;15.80;;;2.80;88.90;;;;;;5054377;28;20021;-50
2021/12/27 00:10:49;;;;;;;27.58;14.60;;;2.50;88.50;;;;;;5055261;28;20080;-51
2021/12/27 00:13:15;;;;;;;31.52;18.42;;;2.50;89.10;;;;;;5054086;28;20071;-52
2021/12/27 00:15:42;;;;;;;27.05;14.32;;;2.70;89.00;;;;;;5053894;28;20021;-49
2021/12/27 00:18:08;;;;;;;31.15;16.17;;;2.50;89.30;;;;;;5054367;28;20033;-49
2021/12/27 00:20:34;;;;;;;28.50;15.48;;;2.80;88.70;;;;;;5054306;28;20125;-50
2021/12/27 00:23:00;;;;;;;29.35;15.05;;;2.60;88.80;;;;;;5053602;28;20048;-49
2021/12/27 00:25:26;;;;;;;29.77;15.55;;;2.60;88.60;;;;;;5052168;28;20029;-49
2021/12/27 00:27:52;;;;;;;27.50;14.32;;;2.70;88.80;;;;;;5054122;28;20025;-50
2021/12/27 00:30:20;;;;;;;34.30;18.42;;;2.70;88.80;;;;;;5053805;28;20028;-51
2021/12/27 00:32:46;;;;;;;26.23;15.23;;;2.60;89.20;;;;;;5053030;28;20489;-48
2021/12/27 00:35:14;;;;;;;26.48;14.52;;;2.60;89.10;;;;;;5054106;28;20025;-49
2021/12/27 00:37:41;;;;;;;35.58;17.67;;;2.60;89.20;;;;;;5052012;28;20032;-48
2021/12/27 00:40:09;;;;;;;28.83;16.30;;;2.60;89.40;;;;;;5053939;28;20025;-51
2021/12/27 00:42:35;;;;;;;29.05;15.70;;;2.60;89.30;;;;;;5053618;28;20033;-49
2021/12/27 00:45:00;;;;;;;33.28;15.90;;;2.60;89.20;;;;;;5054210;28;20025;-52
2021/12/27 00:47:26;;;;;;;29.08;16.17;;;2.40;89.20;;;;;;5053940;28;20058;-51
2021/12/27 00:49:52;;;;;;;30.70;16.13;;;2.40;89.50;;;;;;5053784;28;20025;-48
2021/12/27 00:52:18;;;;;;;26.80;16.45;;;2.40;89.90;;;;;;5052199;28;20025;-50
2021/12/27 00:54:44;;;;;;;27.70;15.77;;;2.40;90.10;;;;;;5052072;28;20028;-49
2021/12/27 00:57:09;;;;;;;25.98;14.93;;;2.40;90.30;;;;;;5053295;28;20029;-49
2021/12/27 00:59:35;;;;;;;24.77;14.70;;;2.60;90.20;;;;;;5053477;28;20061;-52
2021/12/27 01:02:01;;;;;;;25.95;15.35;;;2.60;89.50;;;;;;5053435;28;20466;-49
2021/12/27 01:04:26;;;;;;;25.75;14.50;;;2.50;89.70;;;;;;5053514;28;20029;-47
2021/12/27 01:06:55;;;;;;;27.58;15.55;;;2.50;89.90;;;;;;5053534;28;20131;-49
2021/12/27 01:15:07;;;;;;;23.35;14.52;;;2.50;89.90;;;;;;5058423;28;20029;-47
2021/12/27 01:17:33;;;;;;;23.08;14.65;;;2.80;89.40;;;;;;5057529;28;20580;-52
2021/12/27 01:19:59;;;;;;;27.15;14.65;;;2.70;89.00;;;;;;5058254;28;20029;-48
2021/12/27 01:22:24;;;;;;;29.20;14.70;;;2.60;89.10;;;;;;5056249;28;20446;-48
2021/12/27 01:24:50;;;;;;;27.77;14.93;;;2.50;89.60;;;;;;5057241;28;20116;-48
2021/12/27 01:27:16;;;;;;;25.88;14.65;;;2.50;89.90;;;;;;5056993;28;20048;-50
2021/12/27 01:29:41;;;;;;;28.60;15.43;;;2.80;90.10;;;;;;5057192;28;20029;-48
2021/12/27 01:32:07;;;;;;;30.30;16.60;;;3.00;88.80;;;;;;5057680;28;20021;-49
2021/12/27 01:34:33;;;;;;;27.42;15.30;;;3.10;88.30;;;;;;5056695;28;20040;-48
2021/12/27 01:36:59;;;;;;;29.05;15.73;;;3.10;88.10;;;;;;5056988;28;20603;-52
2021/12/27 01:39:25;;;;;;;36.33;18.63;;;3.00;88.00;;;;;;5055668;28;20025;-50
2021/12/27 01:41:51;;;;;;;26.45;15.13;;;2.90;88.10;;;;;;5057497;28;20060;-48
2021/12/27 01:44:17;;;;;;;26.08;14.15;;;2.80;89.00;;;;;;5055241;28;20128;-52
2021/12/27 01:46:43;;;;;;;26.27;15.48;;;2.60;89.40;;;;;;5057104;28;20104;-47
2021/12/27 01:49:12;;;;;;;30.58;15.38;;;2.80;89.70;;;;;;5056213;28;20025;-49
2021/12/27 01:51:39;;;;;;;25.10;14.52;;;2.90;89.20;;;;;;5056664;28;20027;-53
2021/12/27 01:54:06;;;;;;;26.80;14.85;;;3.00;88.60;;;;;;5057086;28;20037;-50
2021/12/27 01:56:31;;;;;;;28.23;14.23;;;3.00;88.90;;;;;;5056678;28;20089;-51
2021/12/27 01:58:59;;;;;;;29.30;15.70;;;2.90;88.70;;;;;;5057263;28;20052;-49
2021/12/27 02:01:25;;;;;;;28.55;15.93;;;3.10;88.70;;;;;;5057132;28;20053;-47
2021/12/27 02:03:53;;;;;;;28.73;15.05;;;3.00;88.40;;;;;;5056648;28;20132;-48
2021/12/27 02:06:20;;;;;;;26.70;14.25;;;3.10;88.60;;;;;;5056801;28;20032;-47
2021/12/27 02:08:46;;;;;;;24.85;14.50;;;2.80;88.50;;;;;;5055601;28;20047;-50
2021/12/27 02:11:16;;;;;;;24.45;13.43;;;2.80;89.30;;;;;;5056965;28;20024;-51
2021/12/27 02:13:44;;;;;;;26.67;14.57;;;2.90;89.10;;;;;;5057443;28;20025;-51
2021/12/27 02:16:15;;;;;;;24.05;13.40;;;2.80;89.60;;;;;;5057924;28;20033;-50
2021/12/27 02:18:41;;;;;;;22.48;12.98;;;2.80;89.80;;;;;;5056345;28;20025;-55
2021/12/27 02:21:07;;;;;;;28.45;14.23;;;3.10;89.00;;;;;;5058155;28;20025;-53
2021/12/27 02:23:37;;;;;;;24.77;14.52;;;3.30;88.90;;;;;;5055402;28;20109;-53
2021/12/27 02:26:03;;;;;;;23.00;13.10;;;3.30;88.20;;;;;;5054795;28;20107;-48
2021/12/27 02:28:29;;;;;;;24.15;13.38;;;2.90;88.70;;;;;;5054138;28;20040;-48
2021/12/27 02:30:54;;;;;;;24.42;12.73;;;2.80;89.80;;;;;;5054089;28;20025;-49
2021/12/27 02:33:21;;;;;;;25.50;13.30;;;2.90;89.90;;;;;;5055693;28;20108;-49
2021/12/27 02:35:53;;;;;;;27.15;14.73;;;3.20;89.90;;;;;;5053768;28;20370;-48
2021/12/27 02:38:22;;;;;;;23.70;12.50;;;3.40;88.70;;;;;;5054719;28;20102;-49
2021/12/27 02:40:51;;;;;;;21.90;12.57;;;3.40;88.20;;;;;;5055259;28;20031;-52
2021/12/27 02:43:22;;;;;;;29.77;14.55;;;3.30;88.20;;;;;;5055713;28;20503;-49
2021/12/27 02:46:01;;;;;;;25.00;14.38;;;3.40;88.90;;;;;;5055758;28;20036;-48
2021/12/27 02:48:39;;;;;;;25.13;14.80;;;3.40;88.30;;;;;;5055768;28;20033;-47
2021/12/27 02:51:05;;;;;;;26.25;13.00;;;3.30;89.00;;;;;;5055452;28;20025;-48
2021/12/27 02:53:31;;;;;;;26.55;14.77;;;3.40;88.40;;;;;;5055522;28;20339;-48
2021/12/27 02:56:00;;;;;;;26.15;13.95;;;3.20;88.80;;;;;;5055419;28;20054;-51
2021/12/27 02:58:27;;;;;;;23.90;14.55;;;3.20;89.30;;;;;;5055227;28;20050;-38
2021/12/27 03:01:08;;;;;;;25.42;14.10;;;3.30;89.60;;;;;;5055481;28;20052;-38
2021/12/27 03:03:34;;;;;;;22.88;13.77;;;3.40;89.60;;;;;;5055137;28;20037;-38
2021/12/27 03:06:00;;;;;;;21.33;12.80;;;3.30;88.90;;;;;;5055091;28;20047;-39
2021/12/27 03:08:26;;;;;;;20.65;12.48;;;3.30;89.90;;;;;;5054973;28;20017;-39
2021/12/27 03:10:56;;;;;;;25.73;12.45;;;3.40;89.50;;;;;;5055057;28;20133;-39
2021/12/27 03:13:35;;;;;;;27.80;14.32;;;3.50;88.90;;;;;;5055167;28;20028;-39
2021/12/27 03:16:10;;;;;;;23.50;14.50;;;3.40;89.40;;;;;;5053862;28;20032;-39
2021/12/27 03:18:38;;;;;;;23.70;13.68;;;3.40;88.90;;;;;;5054895;28;20025;-39
2021/12/27 03:21:05;;;;;;;22.10;13.23;;;3.60;89.60;;;;;;5054804;28;20060;-39
2021/12/27 03:23:32;;;;;;;25.50;14.32;;;3.80;89.20;;;;;;5054875;28;20013;-39
2021/12/27 03:25:58;;;;;;;22.23;13.63;;;3.80;88.50;;;;;;5055072;28;20029;-38
2021/12/27 03:28:24;;;;;;;25.33;14.07;;;3.80;88.20;;;;;;5054685;28;20321;-39
2021/12/27 03:30:50;;;;;;;25.83;14.48;;;3.80;88.40;;;;;;5053936;28;20511;-39
2021/12/27 03:33:19;;;;;;;26.80;13.80;;;3.70;88.50;;;;;;5055315;28;20021;-39
2021/12/27 03:36:00;;;;;;;26.10;14.25;;;3.80;88.70;;;;;;5054707;28;20036;-39
2021/12/27 03:38:52;;;;;;;23.90;13.82;;;3.80;88.80;;;;;;5054823;28;20041;-39
2021/12/27 03:41:20;;;;;;;25.55;14.00;;;3.70;89.00;;;;;;5054432;28;20024;-39
2021/12/27 03:43:46;;;;;;;26.17;14.13;;;3.70;89.30;;;;;;5054532;28;20115;-39
2021/12/27 03:46:12;;;;;;;26.27;15.82;;;3.60;89.60;;;;;;5053254;28;20446;-39
2021/12/27 03:48:39;;;;;;;27.05;14.50;;;3.60;89.90;;;;;;5054487;28;20057;-39
2021/12/27 03:51:06;;;;;;;23.67;14.57;;;3.60;90.00;;;;;;5054557;28;20032;-39
2021/12/27 03:53:33;;;;;;;26.35;15.48;;;3.60;90.30;;;;;;5054657;28;20074;-39
2021/12/27 03:55:58;;;;;;;26.77;14.88;;;3.60;90.40;;;;;;5054504;28;20024;-39
2021/12/27 03:58:29;;;;;;;29.23;16.13;;;3.60;90.50;;;;;;5054545;28;20373;-41
2021/12/27 04:03:25;;;;;;;28.77;15.90;;;3.60;90.70;;;;;;5053965;28;20142;-39
2021/12/27 04:05:51;;;;;;;28.27;16.85;;;3.60;90.80;;;;;;5054459;28;20035;-39
2021/12/27 04:08:18;;;;;;;29.58;15.93;;;3.70;90.80;;;;;;5055131;28;20199;-38
2021/12/27 04:10:45;;;;;;;29.05;17.52;;;3.60;90.80;;;;;;5054449;28;20425;-39
2021/12/27 04:13:12;;;;;;;28.77;17.67;;;3.70;90.80;;;;;;5055390;28;20454;-39
2021/12/27 04:15:38;;;;;;;31.20;16.40;;;3.60;90.90;;;;;;5053935;28;20419;-39
2021/12/27 04:18:06;;;;;;;30.98;16.67;;;3.70;91.00;;;;;;5053259;28;20525;-38
2021/12/27 04:20:32;;;;;;;30.48;19.17;;;3.60;91.00;;;;;;5054335;28;20021;-39
2021/12/27 04:22:57;;;;;;;31.80;17.98;;;3.60;91.10;;;;;;5054683;28;20055;-37
2021/12/27 04:25:24;;;;;;;34.40;19.60;;;3.60;91.10;;;;;;5054079;28;20032;-37
2021/12/27 04:27:50;;;;;;;37.30;18.15;;;3.70;91.40;;;;;;5052813;28;20025;-38
2021/12/27 04:30:17;;;;;;;29.08;16.63;;;3.60;91.20;;;;;;5053911;28;20465;-38
2021/12/27 04:32:43;;;;;;;32.65;17.55;;;3.80;91.20;;;;;;5054363;28;20421;-38
2021/12/27 04:35:10;;;;;;;28.60;16.83;;;3.80;91.00;;;;;;5053853;28;20130;-38
2021/12/27 04:37:36;;;;;;;29.25;16.98;;;3.80;91.00;;;;;;5053775;28;20033;-38
2021/12/27 04:40:07;;;;;;;29.95;17.00;;;3.80;91.10;;;;;;5053987;28;20044;-39
2021/12/27 04:42:33;;;;;;;33.10;17.20;;;3.80;91.10;;;;;;5053673;28;20017;-38
2021/12/27 04:45:04;;;;;;;32.35;16.60;;;3.80;91.20;;;;;;5053485;28;20472;-45
2021/12/27 04:47:30;;;;;;;35.50;18.58;;;3.80;91.20;;;;;;5052644;28;20109;-38
2021/12/27 04:49:56;;;;;;;28.25;16.75;;;3.90;91.10;;;;;;5057536;28;20467;-38
2021/12/27 04:52:22;;;;;;;33.30;18.52;;;3.80;91.10;;;;;;5057535;28;20102;-38
2021/12/27 04:54:47;;;;;;;31.13;18.05;;;3.80;91.20;;;;;;5056588;28;20116;-38
2021/12/27 04:57:14;;;;;;;30.38;16.02;;;3.80;91.30;;;;;;5056731;28;20481;-38
2021/12/27 04:59:39;;;;;;;30.40;18.60;;;3.80;91.40;;;;;;5056685;28;20108;-38
2021/12/27 05:02:05;;;;;;;32.72;18.80;;;3.80;91.50;;;;;;5054820;28;20109;-38
2021/12/27 05:04:31;;;;;;;30.70;17.23;;;3.80;91.60;;;;;;5054952;28;20033;-39
2021/12/27 05:06:57;;;;;;;34.67;19.35;;;3.80;91.50;;;;;;5056339;28;20028;-39
2021/12/27 05:09:22;;;;;;;29.40;17.55;;;3.80;91.60;;;;;;5056465;28;20017;-38
2021/12/27 05:11:48;;;;;;;27.80;16.52;;;3.80;91.70;;;;;;5056395;28;20380;-39
2021/12/27 05:14:14;;;;;;;27.73;17.45;;;3.80;91.70;;;;;;5056369;28;20031;-39
2021/12/27 05:16:39;;;;;;;27.95;16.55;;;3.70;91.80;;;;;;5056355;28;20527;-39
2021/12/27 05:19:05;;;;;;;35.25;17.65;;;3.80;91.90;;;;;;5056258;28;20049;-37
2021/12/27 05:21:31;;;;;;;31.83;16.75;;;3.80;91.90;;;;;;5056075;28;20075;-39
2021/12/27 05:23:57;;;;;;;30.88;17.40;;;3.80;91.70;;;;;;5055837;28;20064;-38
2021/12/27 05:26:23;;;;;;;30.25;16.20;;;3.80;91.60;;;;;;5055726;28;20512;-39
2021/12/27 05:28:48;;;;;;;28.85;16.73;;;3.80;91.60;;;;;;5054346;28;20021;-39
2021/12/27 05:31:14;;;;;;;31.30;16.42;;;3.80;91.80;;;;;;5056374;28;20021;-39
2021/12/27 05:33:40;;;;;;;25.15;14.48;;;3.80;91.70;;;;;;5055782;28;20032;-38
2021/12/27 05:36:06;;;;;;;25.63;15.77;;;3.80;91.60;;;;;;5055859;28;20025;-39
2021/12/27 05:38:32;;;;;;;27.17;14.93;;;3.70;91.60;;;;;;5055707;28;20028;-38
2021/12/27 05:40:58;;;;;;;24.35;13.63;;;3.70;92.10;;;;;;5055678;28;20030;-38
2021/12/27 05:43:24;;;;;;;26.38;15.57;;;3.60;92.20;;;;;;5056229;28;20069;-38
2021/12/27 05:45:50;;;;;;;27.42;16.02;;;4.00;92.50;;;;;;5055554;28;20472;-39
2021/12/27 05:48:16;;;;;;;21.58;14.15;;;4.00;91.70;;;;;;5055506;28;20021;-39
2021/12/27 05:50:43;;;;;;;27.08;16.42;;;4.20;91.60;;;;;;5055910;28;20090;-39
2021/12/27 05:53:09;;;;;;;24.65;14.50;;;4.20;91.20;;;;;;5055810;28;20086;-38
2021/12/27 05:55:35;;;;;;;29.67;15.43;;;4.20;91.10;;;;;;5055989;28;20051;-38
2021/12/27 05:58:01;;;;;;;23.88;15.02;;;4.20;91.20;;;;;;5055855;28;20368;-38
2021/12/27 06:00:28;;;;;;;32.08;16.05;;;4.10;91.40;;;;;;5054165;28;20031;-39
2021/12/27 06:02:54;;;;;;;24.75;15.18;;;4.10;91.50;;;;;;5055455;28;20057;-39
2021/12/27 06:05:22;;;;;;;27.90;15.68;;;3.90;91.70;;;;;;5054176;28;20036;-39
2021/12/27 06:07:48;;;;;;;27.23;15.75;;;3.90;91.90;;;;;;5055653;28;20029;-39
2021/12/27 06:10:13;;;;;;;28.38;14.75;;;4.00;92.20;;;;;;5055227;28;20215;-39
2021/12/27 06:12:40;;;;;;;28.67;16.50;;;4.10;92.10;;;;;;5055288;28;20017;-39
2021/12/27 06:15:07;;;;;;;25.50;15.50;;;4.10;92.00;;;;;;5054761;28;20028;-39
2021/12/27 06:17:33;;;;;;;27.80;16.52;;;4.10;91.90;;;;;;5053590;28;20036;-39
2021/12/27 06:20:05;;;;;;;30.13;16.10;;;4.10;91.80;;;;;;5055085;28;20100;-38
2021/12/27 06:22:31;;;;;;;25.70;15.07;;;4.10;91.90;;;;;;5055187;28;20025;-38
2021/12/27 06:24:59;;;;;;;24.83;15.00;;;4.10;92.00;;;;;;5055065;28;20098;-39
2021/12/27 06:27:24;;;;;;;25.05;15.80;;;4.20;91.80;;;;;;5053517;28;20017;-39
2021/12/27 06:29:50;;;;;;;26.75;15.18;;;4.20;91.90;;;;;;5053659;28;20025;-39
2021/12/27 06:32:16;;;;;;;22.05;13.75;;;4.20;91.90;;;;;;5054961;28;20017;-39
2021/12/27 06:34:41;;;;;;;25.27;14.95;;;4.20;91.80;;;;;;5054988;28;20036;-39
2021/12/27 06:37:07;;;;;;;25.15;14.65;;;4.20;91.80;;;;;;5054500;28;20037;-39
2021/12/27 06:39:33;;;;;;;23.25;13.30;;;4.10;92.00;;;;;;5054537;28;20137;-39
2021/12/27 06:41:59;;;;;;;22.35;13.32;;;4.10;92.10;;;;;;5054991;28;20548;-38
2021/12/27 06:44:25;;;;;;;26.02;14.18;;;4.10;92.20;;;;;;5054615;28;20115;-39
2021/12/27 06:46:52;;;;;;;23.10;13.38;;;4.10;92.20;;;;;;5054657;28;20532;-38
2021/12/27 06:49:18;;;;;;;25.65;13.55;;;4.20;92.40;;;;;;5054296;28;20492;-38
2021/12/27 06:51:44;;;;;;;24.77;14.05;;;4.30;92.30;;;;;;5053038;28;20021;-38
2021/12/27 06:54:09;;;;;;;21.63;12.85;;;4.30;92.10;;;;;;5054322;28;20036;-40
2021/12/27 06:56:35;;;;;;;20.15;12.50;;;4.20;91.80;;;;;;5054798;28;20025;-39
2021/12/27 06:59:02;;;;;;;21.40;12.70;;;4.20;92.10;;;;;;5054398;28;20032;-38
2021/12/27 07:01:28;;;;;;;26.63;12.75;;;4.30;92.20;;;;;;5054304;28;20504;-38
2021/12/27 07:03:54;;;;;;;19.92;11.32;;;4.10;92.00;;;;;;5054024;28;20481;-38
2021/12/27 07:06:27;;;;;;;22.13;12.00;;;4.10;92.10;;;;;;5054346;28;20020;-40
2021/12/27 07:08:52;;;;;;;21.42;13.00;;;4.10;92.40;;;;;;5054140;28;20021;-39
2021/12/27 07:11:18;;;;;;;17.90;11.30;;;4.10;92.50;;;;;;5053668;28;20100;-39
2021/12/27 07:13:44;;;;;;;19.10;11.00;;;4.00;92.60;;;;;;5053951;28;20047;-39
2021/12/27 07:16:10;;;;;;;21.58;11.10;;;4.10;92.90;;;;;;5053722;28;20452;-38
2021/12/27 07:18:35;;;;;;;15.75;9.68;;;4.20;92.70;;;;;;5053817;28;20028;-38
2021/12/27 07:21:01;;;;;;;18.40;11.07;;;4.20;92.60;;;;;;5052431;28;20053;-39
2021/12/27 07:23:27;;;;;;;16.85;10.65;;;4.10;92.70;;;;;;5052335;28;20021;-38
2021/12/27 07:25:52;;;;;;;18.42;10.95;;;4.30;92.90;;;;;;5053807;28;20028;-37
2021/12/27 07:28:18;;;;;;;18.85;11.32;;;4.60;92.60;;;;;;5053740;28;20017;-38
2021/12/27 07:30:44;;;;;;;19.05;10.77;;;4.70;91.70;;;;;;5053631;28;20099;-38
2021/12/27 07:33:10;;;;;;;21.05;11.65;;;4.80;91.40;;;;;;5053432;28;20036;-39
2021/12/27 07:35:36;;;;;;;20.70;11.43;;;4.80;91.20;;;;;;5053609;28;20029;-40
2021/12/27 07:38:02;;;;;;;19.02;10.88;;;4.80;90.90;;;;;;5053630;28;20036;-39
2021/12/27 07:40:28;;;;;;;16.52;10.32;;;4.80;90.90;;;;;;5054149;28;20117;-38
2021/12/27 07:42:54;;;;;;;19.20;11.32;;;4.80;91.00;;;;;;5053688;28;20021;-38
2021/12/27 07:45:20;;;;;;;18.10;10.80;;;4.80;91.10;;;;;;5053720;28;20380;-38
2021/12/27 07:47:46;;;;;;;27.95;13.00;;;4.80;91.00;;;;;;5053918;28;20020;-39
2021/12/27 07:50:11;;;;;;;19.85;12.20;;;4.80;90.90;;;;;;5053692;28;20021;-38
2021/12/27 07:52:37;;;;;;;16.67;11.23;;;4.80;91.10;;;;;;5053378;28;20101;-38
2021/12/27 07:55:04;;;;;;;20.00;12.45;;;4.90;90.90;;;;;;5053513;28;20040;-38
2021/12/27 07:57:30;;;;;;;20.13;12.60;;;4.90;91.10;;;;;;5053018;28;20083;-38
2021/12/27 07:59:56;;;;;;;19.33;11.45;;;4.90;91.00;;;;;;5052991;28;20033;-40
2021/12/27 14:03:26;;;;;;;7.22;4.93;;;8.70;86.70;;;;;;5090769;27;20102;-40
2021/12/27 14:05:54;;;;;;;5.65;3.40;;;8.80;86.80;;;;;;5091234;28;20028;-39
2021/12/27 14:08:20;;;;;;;3.83;3.13;;;8.80;86.50;;;;;;5090407;28;20403;-39
2021/12/27 14:11:03;;;;;;;2.78;2.55;;;8.80;86.20;;;;;;5071990;28;20422;-39
2021/12/27 14:13:51;;;;;;;3.13;2.25;;;8.80;86.30;;;;;;5072416;28;20055;-42
2021/12/27 14:16:20;;;;;;;3.42;2.60;;;8.80;85.90;;;;;;5072234;28;20443;-39
2021/12/27 14:19:08;;;;;;;7.03;3.85;;;8.80;86.50;;;;;;5088124;28;20111;-39
2021/12/27 14:21:55;;;;;;;7.72;3.83;;;8.80;86.50;;;;;;5089695;28;20027;-39
2021/12/27 14:24:31;;;;;;;7.40;5.10;;;8.70;86.50;;;;;;5089689;28;20024;-40
2021/12/27 14:27:02;;;;;;;4.32;2.78;;;8.70;86.70;;;;;;5088501;28;20032;-40
2021/12/27 14:29:28;;;;;;;6.55;3.72;;;8.80;86.90;;;;;;5090484;28;20020;-39
2021/12/27 14:31:58;;;;;;;4.97;3.35;;;8.80;86.50;;;;;;5089794;28;20020;-40
2021/12/27 14:34:38;;;;;;;3.97;2.78;;;8.70;86.50;;;;;;5088175;28;20115;-38
2021/12/27 14:37:05;;;;;;;3.78;2.75;;;8.80;86.60;;;;;;5071558;28;20027;-39
2021/12/27 14:39:31;;;;;;;3.42;2.72;;;8.80;86.40;;;;;;5090758;28;20029;-40
2021/12/27 14:41:57;;;;;;;3.67;2.40;;;8.80;86.30;;;;;;5090298;28;20028;-39
2021/12/27 14:44:23;;;;;;;3.63;2.90;;;8.70;86.70;;;;;;5090585;28;20021;-38
2021/12/27 14:46:48;;;;;;;3.35;2.95;;;8.70;87.00;;;;;;5089609;28;20066;-39
2021/12/27 14:49:14;;;;;;;3.85;2.70;;;8.70;87.40;;;;;;5089745;28;20074;-39
2021/12/27 14:51:40;;;;;;;7.38;4.20;;;8.60;87.70;;;;;;5088293;28;20020;-41
2021/12/27 14:54:05;;;;;;;4.90;3.88;;;8.50;87.90;;;;;;5089187;28;20362;-41
2021/12/27 14:56:31;;;;;;;8.85;4.38;;;8.40;88.40;;;;;;5088768;28;20028;-39
2021/12/27 14:58:57;;;;;;;6.90;4.45;;;8.40;88.50;;;;;;5089460;28;20024;-38
2021/12/27 15:01:23;;;;;;;6.30;4.13;;;8.60;88.30;;;;;;5063826;28;20065;-39
2021/12/27 15:03:50;;;;;;;7.65;3.80;;;8.60;88.20;;;;;;5006295;28;20022;-39
2021/12/27 15:06:16;;;;;;;4.43;3.53;;;8.60;88.40;;;;;;5006120;28;20069;-38
2021/12/27 15:08:42;;;;;;;5.35;3.70;;;8.40;89.00;;;;;;5006277;28;20441;-40
2021/12/27 15:11:09;;;;;;;5.82;3.65;;;8.50;89.60;;;;;;5073587;28;20125;-38
2021/12/27 15:13:36;;;;;;;9.90;5.20;;;8.40;89.90;;;;;;4997640;28;20030;-38
2021/12/27 15:16:03;;;;;;;8.73;4.07;;;8.30;90.10;;;;;;4992950;28;20034;-38
2021/12/27 15:18:29;;;;;;;5.35;4.55;;;8.30;90.60;;;;;;4993096;28;20022;-38
2021/12/27 15:20:55;;;;;;;6.72;4.50;;;8.30;90.70;;;;;;5059955;28;20053;-40
2021/12/27 15:23:21;;;;;;;6.43;4.13;;;8.30;91.10;;;;;;4992869;28;20030;-39
2021/12/27 15:25:47;;;;;;;7.57;4.65;;;8.30;91.10;;;;;;4993036;28;20109;-39
2021/12/27 15:28:13;;;;;;;5.50;3.33;;;8.30;91.20;;;;;;5060104;28;20065;-39
2021/12/27 15:30:39;;;;;;;8.23;4.72;;;8.10;91.50;;;;;;4993183;28;20031;-38
2021/12/27 15:33:06;;;;;;;6.05;4.20;;;8.20;91.70;;;;;;4992828;28;20032;-39
2021/12/27 15:35:31;;;;;;;13.10;5.38;;;8.10;91.90;;;;;;4992826;28;20022;-38
2021/12/27 15:37:57;;;;;;;10.63;5.30;;;8.20;92.10;;;;;;4992695;28;20026;-39
2021/12/27 15:40:24;;;;;;;5.63;5.03;;;8.10;92.00;;;;;;4992573;28;20363;-39
2021/12/27 15:42:53;;;;;;;9.07;4.97;;;8.30;92.00;;;;;;4992766;28;20022;-39
2021/12/27 15:45:22;;;;;;;6.03;4.10;;;8.30;91.50;;;;;;4992783;28;20048;-38
2021/12/27 15:47:48;;;;;;;7.75;5.03;;;8.20;91.60;;;;;;4992960;28;20463;-39
2021/12/27 15:50:14;;;;;;;9.13;4.97;;;8.20;91.50;;;;;;4992356;28;20129;-39
2021/12/27 15:52:41;;;;;;;9.35;5.40;;;8.30;91.50;;;;;;4992168;28;20027;-38
2021/12/27 15:55:09;;;;;;;12.68;5.45;;;8.30;91.00;;;;;;4992062;28;20038;-39
2021/12/27 15:57:35;;;;;;;6.38;4.72;;;8.50;90.60;;;;;;4993207;28;20492;-39
2021/12/27 16:00:03;;;;;;;9.10;5.25;;;8.30;90.40;;;;;;4992086;28;20026;-39
2021/12/27 16:02:28;;;;;;;7.88;5.32;;;8.30;90.40;;;;;;5057828;28;20065;-39
2021/12/27 16:04:54;;;;;;;7.70;4.72;;;8.30;90.70;;;;;;4992513;28;20022;-39
2021/12/27 16:07:20;;;;;;;5.00;3.88;;;8.40;90.80;;;;;;5059151;28;20056;-38
2021/12/27 16:09:45;;;;;;;7.28;4.85;;;8.40;90.40;;;;;;4992244;28;20055;-39
2021/12/27 16:12:11;;;;;;;6.93;4.95;;;8.40;90.50;;;;;;4992417;28;20061;-40
2021/12/27 16:14:37;;;;;;;7.70;5.40;;;8.50;90.10;;;;;;5058814;28;20109;-39
2021/12/27 16:17:04;;;;;;;5.50;4.53;;;8.30;90.50;;;;;;4992368;28;20026;-40
2021/12/27 16:19:30;;;;;;;6.75;5.15;;;8.30;90.60;;;;;;4992216;28;20152;-40
2021/12/27 16:21:55;;;;;;;7.50;5.03;;;8.30;91.00;;;;;;4992396;28;20106;-39
2021/12/27 16:24:22;;;;;;;8.18;5.50;;;8.30;90.70;;;;;;4991608;28;20096;-39
2021/12/27 16:26:48;;;;;;;8.45;5.10;;;8.40;90.70;;;;;;4992046;28;20019;-38
2021/12/27 16:29:14;;;;;;;15.82;8.50;;;8.40;90.70;;;;;;4991437;28;20022;-39
2021/12/27 16:31:40;;;;;;;8.32;5.68;;;8.30;90.80;;;;;;4990895;28;20053;-39
2021/12/27 16:34:09;;;;;;;8.27;5.70;;;8.20;91.20;;;;;;4992030;28;20471;-40
2021/12/27 16:36:37;;;;;;;12.13;7.10;;;8.10;91.30;;;;;;4992212;28;20390;-39
2021/12/27 16:39:03;;;;;;;10.50;5.53;;;8.30;91.50;;;;;;4992459;28;20455;-39
2021/12/27 16:41:28;;;;;;;9.55;7.07;;;8.20;91.60;;;;;;5059229;28;20027;-41
2021/12/27 16:43:54;;;;;;;12.88;5.60;;;8.30;91.70;;;;;;4991339;28;20025;-38
2021/12/27 16:46:20;;;;;;;9.73;6.93;;;8.20;91.70;;;;;;4992888;28;20033;-39
2021/12/27 16:48:46;;;;;;;13.63;7.47;;;8.10;92.00;;;;;;4991932;28;20061;-39
2021/12/27 16:51:12;;;;;;;10.75;6.25;;;8.10;92.20;;;;;;4991906;28;20506;-40
2021/12/27 16:53:38;;;;;;;13.05;7.03;;;8.10;92.30;;;;;;4991337;28;20030;-39
2021/12/27 16:56:03;;;;;;;10.32;6.93;;;8.10;92.30;;;;;;4990900;28;20038;-39
2021/12/27 16:58:29;;;;;;;14.90;8.32;;;8.30;92.00;;;;;;4991523;28;20034;-39
2021/12/27 17:00:58;;;;;;;19.02;9.65;;;8.30;91.70;;;;;;4991762;28;20026;-39
2021/12/27 17:03:25;;;;;;;13.88;7.63;;;8.30;91.40;;;;;;4991756;28;20101;-39
2021/12/27 17:05:52;;;;;;;14.95;8.40;;;8.20;91.50;;;;;;4991905;28;20045;-41
2021/12/27 17:08:19;;;;;;;14.07;6.85;;;8.30;91.40;;;;;;4992009;28;20059;-39
2021/12/27 17:10:46;;;;;;;11.50;7.25;;;8.30;91.20;;;;;;4992358;28;20034;-39
2021/12/27 17:13:12;;;;;;;14.82;7.85;;;8.30;91.30;;;;;;4991546;28;20076;-39
2021/12/27 17:15:39;;;;;;;10.65;6.53;;;8.50;90.80;;;;;;4991981;28;20034;-39
2021/12/27 17:18:07;;;;;;;11.18;6.32;;;8.50;90.40;;;;;;4991936;28;20061;-42
2021/12/27 17:20:34;;;;;;;12.50;7.57;;;8.50;90.30;;;;;;4991814;28;20023;-39
2021/12/27 17:23:01;;;;;;;11.35;6.63;;;8.50;90.00;;;;;;4991322;28;20031;-39
2021/12/27 17:25:27;;;;;;;12.82;7.40;;;8.40;90.00;;;;;;5059020;28;20113;-39
2021/12/27 17:27:54;;;;;;;8.98;5.78;;;8.50;90.20;;;;;;4992025;28;20035;-38
2021/12/27 17:30:21;;;;;;;17.02;8.55;;;8.60;89.80;;;;;;4991589;28;20015;-39
2021/12/27 17:32:47;;;;;;;9.93;6.20;;;8.40;89.70;;;;;;4991817;28;20142;-39
2021/12/27 17:35:14;;;;;;;10.43;6.63;;;8.30;90.10;;;;;;4992132;28;20031;-38
2021/12/27 17:37:40;;;;;;;8.32;5.53;;;8.40;90.10;;;;;;4991601;28;20030;-39
2021/12/27 17:40:09;;;;;;;12.57;6.85;;;8.30;90.30;;;;;;5059002;28;20026;-39
2021/12/27 17:42:34;;;;;;;13.00;8.48;;;8.30;90.10;;;;;;4991449;28;20018;-39
2021/12/27 17:45:00;;;;;;;15.15;7.80;;;8.30;90.30;;;;;;4991274;28;20068;-40
2021/12/27 17:47:26;;;;;;;17.88;9.18;;;8.30;90.10;;;;;;4991394;28;20023;-39
2021/12/27 17:49:53;;;;;;;11.30;6.57;;;8.30;90.00;;;;;;4991417;28;20026;-39
2021/12/27 17:52:18;;;;;;;11.70;6.07;;;8.30;90.20;;;;;;4991675;28;20027;-39
2021/12/27 17:54:44;;;;;;;16.67;8.35;;;8.30;90.10;;;;;;4991135;28;20030;-40
2021/12/27 17:57:11;;;;;;;30.25;13.77;;;8.40;90.00;;;;;;4991226;28;20052;-39
2021/12/27 17:59:37;;;;;;;28.05;13.90;;;8.40;89.60;;;;;;4990915;28;20038;-38
2021/12/27 18:02:03;;;;;;;18.65;10.95;;;8.40;89.40;;;;;;4990999;28;20043;-39
2021/12/27 18:04:30;;;;;;;16.67;10.95;;;8.50;89.20;;;;;;4991707;28;20479;-39
2021/12/27 18:06:56;;;;;;;9.43;7.13;;;8.40;89.40;;;;;;4990880;28;20019;-39
2021/12/27 18:09:22;;;;;;;33.42;15.07;;;8.40;89.30;;;;;;4990988;28;20023;-38
2021/12/27 18:11:49;;;;;;;11.00;6.93;;;8.50;89.00;;;;;;4991099;28;20026;-40
2021/12/27 18:14:16;;;;;;;14.63;7.63;;;8.60;88.60;;;;;;4990305;28;20065;-39
2021/12/27 18:16:42;;;;;;;16.45;7.95;;;8.50;88.80;;;;;;4990552;28;20060;-40
2021/12/27 18:19:08;;;;;;;12.02;5.63;;;8.50;88.90;;;;;;4991191;28;20030;-39
2021/12/27 18:21:36;;;;;;;8.25;5.47;;;8.50;88.50;;;;;;4990647;28;20050;-39
2021/12/27 18:24:04;;;;;;;20.95;9.45;;;8.60;88.60;;;;;;4990288;28;20030;-49
2021/12/27 18:26:29;;;;;;;14.98;7.55;;;8.60;88.40;;;;;;4991045;28;20033;-39
2021/12/27 18:28:55;;;;;;;13.75;8.05;;;8.70;88.10;;;;;;4990563;28;20015;-40
2021/12/27 18:31:21;;;;;;;8.35;6.45;;;8.60;88.30;;;;;;4991061;28;20037;-40
2021/12/27 18:33:47;;;;;;;7.35;6.03;;;8.80;87.70;;;;;;4991414;28;20125;-39
2021/12/27 18:36:12;;;;;;;10.15;5.93;;;8.70;87.60;;;;;;4990972;28;20437;-39
2021/12/27 18:38:38;;;;;;;9.93;6.28;;;8.70;87.80;;;;;;4990577;28;20463;-39
2021/12/27 18:41:05;;;;;;;14.00;6.70;;;8.80;87.70;;;;;;4990477;28;20432;-39
2021/12/27 18:43:31;;;;;;;12.15;5.88;;;8.80;87.50;;;;;;4990489;28;20026;-40
2021/12/27 18:45:57;;;;;;;12.73;7.07;;;8.80;87.40;;;;;;4991018;28;20326;-39
2021/12/27 18:48:23;;;;;;;26.25;12.75;;;8.80;87.80;;;;;;4992727;28;20023;-40
2021/12/27 18:50:49;;;;;;;17.63;9.13;;;8.80;87.60;;;;;;4994472;28;20133;-40